createdAt,value
2017-09-03T00:01:48.049Z,2.23
2017-09-03T00:04:15.538Z,2.33
2017-09-03T00:06:43.069Z,2.60
2017-09-03T00:09:10.600Z,2.13
2017-09-03T00:11:38.118Z,2.10
2017-09-03T00:14:06.025Z,2.27
2017-09-03T00:16:33.558Z,2.63
2017-09-03T00:19:01.069Z,2.03
2017-09-03T00:21:28.590Z,2.63
2017-09-03T00:23:56.137Z,2.00
2017-09-03T00:26:23.664Z,1.93
2017-09-03T00:28:51.166Z,2.00
2017-09-03T00:31:18.704Z,2.20
2017-09-03T00:33:46.237Z,2.30
2017-09-03T00:36:13.773Z,2.47
2017-09-03T00:38:41.360Z,2.77
2017-09-03T00:41:08.857Z,2.07
2017-09-03T00:43:36.381Z,2.27
2017-09-03T00:46:04.027Z,2.00
2017-09-03T00:48:32.362Z,2.43
2017-09-03T00:50:59.870Z,2.93
2017-09-03T00:53:27.454Z,2.27
2017-09-03T00:55:54.949Z,2.77
2017-09-03T00:58:22.435Z,2.27
2017-09-03T01:00:49.969Z,2.37
2017-09-03T01:03:17.518Z,2.80
2017-09-03T01:05:46.101Z,1.73
2017-09-03T01:08:14.416Z,2.70
2017-09-03T01:10:42.052Z,2.50
2017-09-03T01:13:09.542Z,2.60
2017-09-03T01:15:37.129Z,2.50
2017-09-03T01:18:04.662Z,2.80
2017-09-03T01:20:32.218Z,2.70
2017-09-03T01:22:59.731Z,2.50
2017-09-03T01:25:27.257Z,3.23
2017-09-03T01:27:54.797Z,2.90
2017-09-03T01:30:22.295Z,2.63
2017-09-03T01:32:49.963Z,2.73
2017-09-03T01:35:17.477Z,2.80
2017-09-03T01:37:44.995Z,2.37
2017-09-03T01:40:12.535Z,2.90
2017-09-03T01:42:40.084Z,3.30
2017-09-03T01:45:07.575Z,3.07
2017-09-03T01:47:35.084Z,3.03
2017-09-03T01:50:02.736Z,3.20
2017-09-03T01:52:30.235Z,3.43
2017-09-03T01:54:57.736Z,2.33
2017-09-03T01:57:25.279Z,3.10
2017-09-03T01:59:52.813Z,2.77
2017-09-03T02:02:20.385Z,2.97
2017-09-03T02:04:48.014Z,3.20
2017-09-03T02:07:15.525Z,2.90
2017-09-03T02:09:43.015Z,2.97
2017-09-03T02:12:10.654Z,3.40
2017-09-03T02:14:38.159Z,3.20
2017-09-03T02:17:05.648Z,3.53
2017-09-03T02:19:33.239Z,3.00
2017-09-03T02:22:00.746Z,3.03
2017-09-03T02:24:28.245Z,3.30
2017-09-03T02:26:55.764Z,3.30
2017-09-03T02:29:23.256Z,3.07
2017-09-03T02:31:51.580Z,3.73
2017-09-03T02:34:19.132Z,3.10
2017-09-03T02:36:46.653Z,3.13
2017-09-03T02:39:14.206Z,3.63
2017-09-03T02:41:41.743Z,3.60
2017-09-03T02:44:09.270Z,3.30
2017-09-03T02:46:36.794Z,3.80
2017-09-03T02:49:04.464Z,3.53
2017-09-03T02:51:32.103Z,4.33
2017-09-03T02:53:59.610Z,3.90
2017-09-03T02:56:27.102Z,3.43
2017-09-03T02:58:54.696Z,4.20
2017-09-03T03:01:22.199Z,3.60
2017-09-03T03:03:49.923Z,4.37
2017-09-03T03:06:17.472Z,3.63
2017-09-03T03:08:45.055Z,4.40
2017-09-03T03:11:12.604Z,4.00
2017-09-03T03:13:41.970Z,4.47
2017-09-03T03:16:09.514Z,4.37
2017-09-03T03:18:37.095Z,4.17
2017-09-03T03:21:04.622Z,4.03
2017-09-03T03:23:32.121Z,4.17
2017-09-03T03:25:59.668Z,4.97
2017-09-03T03:28:27.201Z,5.53
2017-09-03T03:30:54.706Z,5.20
2017-09-03T03:33:22.259Z,4.23
2017-09-03T03:35:49.824Z,5.07
2017-09-03T03:38:17.338Z,5.53
2017-09-03T03:40:44.865Z,4.60
2017-09-03T03:43:12.363Z,5.07
2017-09-03T03:45:39.877Z,5.00
2017-09-03T03:48:07.393Z,5.50
2017-09-03T03:50:34.949Z,5.50
2017-09-03T03:53:02.493Z,4.70
2017-09-03T03:55:29.997Z,5.63
2017-09-03T03:57:57.636Z,5.10
2017-09-03T04:00:25.162Z,5.53
2017-09-03T04:02:52.649Z,5.00
2017-09-03T04:05:20.685Z,5.80
2017-09-03T04:07:48.183Z,4.83
2017-09-03T04:10:15.779Z,5.77
2017-09-03T04:12:43.328Z,5.43
2017-09-03T04:15:11.608Z,5.73
2017-09-03T04:17:39.114Z,5.30
2017-09-03T04:20:06.789Z,4.90
2017-09-03T04:22:34.288Z,5.43
2017-09-03T04:25:01.807Z,4.77
2017-09-03T04:27:29.332Z,5.07
2017-09-03T04:29:56.926Z,4.87
2017-09-03T04:32:24.479Z,4.73
2017-09-03T04:34:51.988Z,4.93
2017-09-03T04:37:19.525Z,5.53
2017-09-03T04:39:47.055Z,5.13
2017-09-03T04:42:14.726Z,4.83
2017-09-03T04:44:42.253Z,5.83
2017-09-03T04:47:09.764Z,5.43
2017-09-03T04:49:37.302Z,4.93
2017-09-03T04:52:04.817Z,5.13
2017-09-03T04:54:32.326Z,5.40
2017-09-03T04:56:59.867Z,5.50
2017-09-03T04:59:27.375Z,5.43
2017-09-03T05:01:54.911Z,6.00
2017-09-03T05:04:22.466Z,5.20
2017-09-03T05:06:49.987Z,6.03
2017-09-03T05:09:17.490Z,5.70
2017-09-03T05:11:45.056Z,6.13
2017-09-03T05:14:12.549Z,5.30
2017-09-03T05:16:40.039Z,5.50
2017-09-03T05:19:07.547Z,5.77
2017-09-03T05:21:35.922Z,5.20
2017-09-03T05:24:03.415Z,5.80
2017-09-03T05:26:30.958Z,5.10
2017-09-03T05:28:58.542Z,5.10
2017-09-03T05:31:26.080Z,5.33
2017-09-03T05:33:53.615Z,5.17
2017-09-03T05:36:21.181Z,5.17
2017-09-03T05:38:48.689Z,5.30
2017-09-03T05:41:16.288Z,5.10
2017-09-03T05:43:43.798Z,5.07
2017-09-03T05:46:11.303Z,5.40
2017-09-03T05:48:38.843Z,5.40
2017-09-03T05:51:06.365Z,5.27
2017-09-03T05:53:33.885Z,5.30
2017-09-03T05:56:01.416Z,5.10
2017-09-03T05:58:28.967Z,4.97
2017-09-03T06:00:56.468Z,5.27
2017-09-03T06:03:23.965Z,5.40
2017-09-03T06:05:51.508Z,5.10
2017-09-03T06:08:19.007Z,4.87
2017-09-03T06:10:46.537Z,4.73
2017-09-03T06:13:14.040Z,4.67
2017-09-03T06:15:42.338Z,4.73
2017-09-03T06:18:09.851Z,5.07
2017-09-03T06:20:37.416Z,4.73
2017-09-03T06:23:04.948Z,4.83
2017-09-03T06:25:32.473Z,5.03
2017-09-03T06:28:00.008Z,5.03
2017-09-03T06:30:27.496Z,4.97
2017-09-03T06:35:28.924Z,4.90
2017-09-03T06:37:57.107Z,4.50
2017-09-03T06:40:25.376Z,4.27
2017-09-03T06:42:53.059Z,5.03
2017-09-03T06:45:20.588Z,4.70
2017-09-03T06:47:48.074Z,4.53
2017-09-03T06:50:15.703Z,4.80
2017-09-03T06:52:43.213Z,4.80
2017-09-03T06:55:12.065Z,4.87
2017-09-03T06:57:39.607Z,4.93
2017-09-03T07:00:07.118Z,4.40
2017-09-03T07:02:34.665Z,4.77
2017-09-03T07:05:02.585Z,4.80
2017-09-03T07:07:30.084Z,4.10
2017-09-03T07:09:57.613Z,4.40
2017-09-03T07:12:25.600Z,4.70
2017-09-03T07:14:53.962Z,4.90
2017-09-03T07:17:21.525Z,6.30
2017-09-03T07:19:49.048Z,4.07
2017-09-03T07:22:16.538Z,4.87
2017-09-03T07:24:44.068Z,5.33
2017-09-03T07:27:11.573Z,4.40
2017-09-03T07:29:39.147Z,4.97
2017-09-03T07:32:06.653Z,4.70
2017-09-03T07:34:34.244Z,5.47
2017-09-03T07:37:01.755Z,5.77
2017-09-03T07:39:29.303Z,4.77
2017-09-03T07:41:56.790Z,4.70
2017-09-03T07:44:24.299Z,5.17
2017-09-03T07:46:51.900Z,4.50
2017-09-03T07:49:19.475Z,4.77
2017-09-03T07:51:47.237Z,4.93
2017-09-03T07:54:14.753Z,4.50
2017-09-03T07:56:43.059Z,4.70
2017-09-03T07:59:10.726Z,4.37
2017-09-03T08:01:38.246Z,5.53
2017-09-03T08:04:05.764Z,5.50
2017-09-03T08:06:33.345Z,4.90
2017-09-03T08:09:00.924Z,4.80
2017-09-03T08:11:28.438Z,5.00
2017-09-03T08:13:56.004Z,5.33
2017-09-03T08:16:23.509Z,5.47
2017-09-03T08:18:51.001Z,4.80
2017-09-03T08:21:19.319Z,4.07
2017-09-03T08:23:46.818Z,5.50
2017-09-03T08:26:15.263Z,4.37
2017-09-03T08:28:42.776Z,8.57
2017-09-03T08:31:10.297Z,5.23
2017-09-03T08:33:37.832Z,5.33
2017-09-03T08:36:05.355Z,5.03
2017-09-03T08:38:32.874Z,4.70
2017-09-03T08:41:00.381Z,5.10
2017-09-03T08:43:27.898Z,4.80
2017-09-03T08:45:55.407Z,4.70
2017-09-03T08:48:22.916Z,4.87
2017-09-03T08:50:50.421Z,4.70
2017-09-03T08:53:17.945Z,4.60
2017-09-03T08:55:46.243Z,4.10
2017-09-03T08:58:13.757Z,4.40
2017-09-03T09:00:41.314Z,4.13
2017-09-03T09:03:08.813Z,4.53
2017-09-03T09:05:36.368Z,3.93
2017-09-03T09:08:03.866Z,3.63
2017-09-03T09:10:31.375Z,4.60
2017-09-03T09:12:58.925Z,4.40
2017-09-03T09:15:26.483Z,6.30
2017-09-03T09:17:54.065Z,9.33
2017-09-03T09:20:21.582Z,6.60
2017-09-03T09:22:49.170Z,5.03
2017-09-03T09:25:16.793Z,3.93
2017-09-03T09:27:44.302Z,3.90
2017-09-03T09:30:12.031Z,4.40
2017-09-03T09:32:39.560Z,3.10
2017-09-03T09:35:07.049Z,3.80
2017-09-03T09:37:34.589Z,3.10
2017-09-03T09:40:02.155Z,2.97
2017-09-03T09:42:30.570Z,3.37
2017-09-03T09:44:58.161Z,3.13
2017-09-03T09:47:25.668Z,3.30
2017-09-03T09:49:54.092Z,3.17
2017-09-03T09:52:21.651Z,3.30
2017-09-03T09:54:49.731Z,3.20
2017-09-03T09:57:17.259Z,3.40
2017-09-03T09:59:44.826Z,3.47
2017-09-03T10:02:12.343Z,3.53
2017-09-03T10:04:39.871Z,2.80
2017-09-03T10:07:07.371Z,3.43
2017-09-03T10:09:35.303Z,2.90
2017-09-03T10:12:02.862Z,3.30
2017-09-03T10:14:30.416Z,2.90
2017-09-03T10:16:57.929Z,3.17
2017-09-03T10:19:25.433Z,2.60
2017-09-03T10:21:52.973Z,2.97
2017-09-03T10:24:20.513Z,3.27
2017-09-03T10:26:48.077Z,3.43
2017-09-03T10:29:15.573Z,3.60
2017-09-03T10:31:43.133Z,3.63
2017-09-03T10:34:10.639Z,12.90
2017-09-03T10:36:39.190Z,5.93
2017-09-03T10:39:06.823Z,2.87
2017-09-03T10:41:34.366Z,2.30
2017-09-03T10:44:01.884Z,1.93
2017-09-03T10:46:29.424Z,3.43
2017-09-03T10:48:56.959Z,2.70
2017-09-03T10:51:24.524Z,2.50
2017-09-03T10:53:54.470Z,2.63
2017-09-03T10:56:21.975Z,2.37
2017-09-03T10:58:49.479Z,1.60
2017-09-03T11:01:17.058Z,2.00
2017-09-03T11:03:52.784Z,2.17
2017-09-03T11:06:22.204Z,2.60
2017-09-03T11:08:50.367Z,2.03
2017-09-03T11:11:19.267Z,1.90
2017-09-03T11:13:46.804Z,1.80
2017-09-03T11:16:16.752Z,2.10
2017-09-03T11:18:46.057Z,2.63
2017-09-03T11:21:13.565Z,2.07
2017-09-03T11:23:41.140Z,2.20
2017-09-03T11:26:11.304Z,1.90
2017-09-03T11:28:38.855Z,1.83
2017-09-03T11:31:09.203Z,1.60
2017-09-03T11:33:36.744Z,1.43
2017-09-03T11:36:04.267Z,1.33
2017-09-03T11:38:33.060Z,1.67
2017-09-03T11:41:00.586Z,1.70
2017-09-03T11:43:28.136Z,1.57
2017-09-03T11:45:55.641Z,1.83
2017-09-03T11:48:23.217Z,1.90
2017-09-03T11:50:50.921Z,1.77
2017-09-03T11:53:18.463Z,2.07
2017-09-03T11:55:46.309Z,1.50
2017-09-03T11:58:13.920Z,1.70
2017-09-03T12:00:41.511Z,1.87
2017-09-03T12:03:09.024Z,2.00
2017-09-03T12:05:36.560Z,1.83
2017-09-03T12:08:04.052Z,1.90
2017-09-03T12:10:31.552Z,1.90
2017-09-03T12:12:59.108Z,1.20
2017-09-03T12:15:26.600Z,1.80
2017-09-03T12:17:54.112Z,1.70
2017-09-03T12:20:21.692Z,1.23
2017-09-03T12:22:49.250Z,1.73
2017-09-03T12:25:16.761Z,1.60
2017-09-03T12:27:44.290Z,1.50
2017-09-03T12:30:11.802Z,1.80
2017-09-03T12:32:39.358Z,1.30
2017-09-03T12:35:06.944Z,1.40
2017-09-03T12:37:34.452Z,1.40
2017-09-03T12:40:02.021Z,1.30
2017-09-03T12:42:29.551Z,1.30
2017-09-03T12:44:57.050Z,1.50
2017-09-03T12:47:24.605Z,2.40
2017-09-03T12:49:52.113Z,2.20
2017-09-03T12:52:19.625Z,1.70
2017-09-03T12:54:47.145Z,1.50
2017-09-03T12:57:14.721Z,1.83
2017-09-03T12:59:42.268Z,1.60
2017-09-03T13:02:09.791Z,1.40
2017-09-03T13:04:37.870Z,2.00
2017-09-03T13:07:05.383Z,1.73
2017-09-03T13:09:32.924Z,1.70
2017-09-03T13:12:00.427Z,2.20
2017-09-03T13:14:28.013Z,1.67
2017-09-03T13:16:55.614Z,1.10
2017-09-03T13:19:23.154Z,1.30
2017-09-03T13:21:51.127Z,1.70
2017-09-03T13:24:18.680Z,1.60
2017-09-03T13:26:46.268Z,1.50
2017-09-03T13:29:13.832Z,1.30
2017-09-03T13:31:41.696Z,1.73
2017-09-03T13:34:09.252Z,1.37
2017-09-03T13:36:36.824Z,1.30
2017-09-03T13:39:04.730Z,1.10
2017-09-03T13:41:32.253Z,1.33
2017-09-03T13:43:59.842Z,1.10
2017-09-03T13:46:27.328Z,1.20
2017-09-03T13:48:54.849Z,1.13
2017-09-03T13:51:22.401Z,1.80
2017-09-03T13:53:49.936Z,1.47
2017-09-03T13:56:17.493Z,1.80
2017-09-03T13:58:45.071Z,1.50
2017-09-03T14:01:12.610Z,1.40
2017-09-03T14:03:40.167Z,1.27
2017-09-03T14:06:08.535Z,1.57
2017-09-03T14:08:36.042Z,1.50
2017-09-03T14:11:03.621Z,1.43
2017-09-03T14:13:31.759Z,2.90
2017-09-03T14:15:59.288Z,1.80
2017-09-03T14:18:26.821Z,6.70
2017-09-03T14:20:54.331Z,2.10
2017-09-03T14:23:21.850Z,1.90
2017-09-03T14:25:49.478Z,1.90
2017-09-03T14:28:17.045Z,1.73
2017-09-03T14:30:44.568Z,1.50
2017-09-03T14:33:12.103Z,1.80
2017-09-03T14:35:39.633Z,1.43
2017-09-03T14:38:07.222Z,1.20
2017-09-03T14:40:34.752Z,1.77
2017-09-03T14:43:02.306Z,1.43
2017-09-03T14:45:29.806Z,2.60
2017-09-03T14:47:57.623Z,2.13
2017-09-03T14:50:25.836Z,1.60
2017-09-03T14:52:53.369Z,1.40
2017-09-03T14:55:20.985Z,1.30
2017-09-03T14:57:49.973Z,1.50
2017-09-03T15:00:17.517Z,1.50
2017-09-03T15:02:45.249Z,1.40
2017-09-03T15:05:12.795Z,1.90
2017-09-03T15:07:40.305Z,1.90
2017-09-03T15:10:08.087Z,1.80
2017-09-03T15:12:35.592Z,1.37
2017-09-03T15:15:03.421Z,1.30
2017-09-03T15:17:30.973Z,1.30
2017-09-03T15:19:58.493Z,1.10
2017-09-03T15:22:36.831Z,2.57
2017-09-03T15:25:05.212Z,2.20
2017-09-03T15:27:32.834Z,2.80
2017-09-03T15:30:00.350Z,1.73
2017-09-03T15:32:28.455Z,2.20
2017-09-03T15:34:56.001Z,1.47
2017-09-03T15:37:23.716Z,1.80
2017-09-03T15:39:51.204Z,1.37
2017-09-03T15:42:18.735Z,1.70
2017-09-03T15:44:46.288Z,1.40
2017-09-03T15:47:13.803Z,1.50
2017-09-03T15:49:41.379Z,1.63
2017-09-03T15:52:08.930Z,1.60
2017-09-03T15:54:36.489Z,1.80
2017-09-03T15:57:04.808Z,1.60
2017-09-03T15:59:32.325Z,1.90
2017-09-03T16:01:59.894Z,2.07
2017-09-03T16:04:27.394Z,2.13
2017-09-03T16:06:54.948Z,2.57
2017-09-03T16:09:22.527Z,2.53
2017-09-03T16:11:50.044Z,2.37
2017-09-03T16:14:17.655Z,2.83
2017-09-03T16:16:45.268Z,2.57
2017-09-03T16:19:12.751Z,2.63
2017-09-03T16:21:40.882Z,2.60
2017-09-03T16:24:08.429Z,2.37
2017-09-03T16:26:35.942Z,2.10
2017-09-03T16:29:03.606Z,2.20
2017-09-03T16:31:31.168Z,2.40
2017-09-03T16:33:58.742Z,2.77
2017-09-03T16:36:26.272Z,2.67
2017-09-03T16:38:53.817Z,2.10
2017-09-03T16:41:21.364Z,2.47
2017-09-03T16:43:49.003Z,2.27
2017-09-03T16:46:16.579Z,2.40
2017-09-03T16:48:47.916Z,1.90
2017-09-03T16:51:15.453Z,2.30
2017-09-03T16:53:43.033Z,2.20
2017-09-03T16:56:10.631Z,2.47
2017-09-03T16:58:39.799Z,2.37
2017-09-03T17:01:07.451Z,1.90
2017-09-03T17:03:35.933Z,2.50
2017-09-03T17:06:03.461Z,2.63
2017-09-03T17:08:36.881Z,2.27
2017-09-03T17:11:04.815Z,2.30
2017-09-03T17:13:32.363Z,2.73
2017-09-03T17:19:16.621Z,1.80
2017-09-03T17:21:44.164Z,2.20
2017-09-03T17:24:13.334Z,1.67
2017-09-03T17:26:59.978Z,2.60
2017-09-03T17:29:33.370Z,3.10
2017-09-03T17:32:06.679Z,2.47
2017-09-03T17:34:54.301Z,2.50
2017-09-03T17:37:25.590Z,2.97
2017-09-03T17:39:53.949Z,1.90
2017-09-03T17:42:23.381Z,3.10
2017-09-03T17:44:52.586Z,2.03
2017-09-03T17:47:20.106Z,2.47
2017-09-03T17:50:00.802Z,2.33
2017-09-03T17:52:33.241Z,2.60
2017-09-03T17:55:09.028Z,3.03
2017-09-03T17:57:38.069Z,2.57
2017-09-03T18:00:05.683Z,3.70
2017-09-03T18:02:33.318Z,2.70
2017-09-03T18:05:00.901Z,3.20
2017-09-03T18:07:28.497Z,2.80
2017-09-03T18:09:56.041Z,2.83
2017-09-03T18:12:24.290Z,3.00
2017-09-03T18:14:52.561Z,2.67
2017-09-03T18:17:20.887Z,3.73
2017-09-03T18:19:48.428Z,3.80
2017-09-03T18:22:15.969Z,3.40
2017-09-03T18:24:44.514Z,3.07
2017-09-03T18:27:12.949Z,3.00
2017-09-03T18:29:40.502Z,2.80
2017-09-03T18:32:08.986Z,3.00
2017-09-03T18:34:36.782Z,2.60
2017-09-03T18:37:11.021Z,2.90
2017-09-03T18:39:39.112Z,3.67
2017-09-03T18:45:08.347Z,3.60
2017-09-03T18:47:35.916Z,3.90
2017-09-03T18:50:11.799Z,4.13
2017-09-03T18:52:42.948Z,4.73
2017-09-03T18:55:11.284Z,3.50
2017-09-03T18:57:48.777Z,3.80
2017-09-03T19:00:16.371Z,3.80
2017-09-03T19:02:47.646Z,4.47
2017-09-03T19:05:16.383Z,36.33
2017-09-03T19:07:43.949Z,16.80
2017-09-03T19:10:12.142Z,19.77
2017-09-03T19:12:39.764Z,10.50
2017-09-03T19:15:10.421Z,13.10
2017-09-03T19:17:46.771Z,25.80
2017-09-03T19:20:17.678Z,7.70
2017-09-03T19:22:45.330Z,14.30
2017-09-03T19:25:12.991Z,10.10
2017-09-03T19:27:42.259Z,10.00
2017-09-03T19:30:10.882Z,12.27
2017-09-03T19:32:38.523Z,8.70
2017-09-03T19:35:08.552Z,7.90
2017-09-03T19:37:37.646Z,6.30
2017-09-03T19:40:05.246Z,14.90
2017-09-03T19:42:32.759Z,7.27
2017-09-03T19:45:00.982Z,10.07
2017-09-03T19:47:28.501Z,6.13
2017-09-03T19:49:56.077Z,7.30
2017-09-03T19:52:23.681Z,8.23
2017-09-03T19:54:52.599Z,8.30
2017-09-03T19:57:20.111Z,7.40
2017-09-03T19:59:47.627Z,7.20
2017-09-03T20:02:15.210Z,7.73
2017-09-03T20:04:42.739Z,7.30
2017-09-03T20:07:10.275Z,5.73
2017-09-03T20:09:39.870Z,5.47
2017-09-03T20:12:12.363Z,4.87
2017-09-03T20:14:39.873Z,4.40
2017-09-03T20:17:08.115Z,6.00
2017-09-03T20:19:35.674Z,5.47
2017-09-03T20:22:03.202Z,5.27
2017-09-03T20:24:31.633Z,5.70
2017-09-03T20:26:59.207Z,4.63
2017-09-03T20:29:27.307Z,4.80
2017-09-03T20:31:54.855Z,4.40
2017-09-03T20:34:22.430Z,4.57
2017-09-03T20:36:50.110Z,4.70
2017-09-03T20:39:17.685Z,4.47
2017-09-03T20:41:48.780Z,3.80
2017-09-03T20:44:16.301Z,3.83
2017-09-03T20:46:43.918Z,3.87
2017-09-03T20:49:11.444Z,4.07
2017-09-03T20:51:40.566Z,4.30
2017-09-03T20:54:10.836Z,4.17
2017-09-03T20:56:40.254Z,4.27
2017-09-03T20:59:07.915Z,3.90
2017-09-03T21:01:38.057Z,3.70
2017-09-03T21:04:11.919Z,3.73
2017-09-03T21:06:40.045Z,3.60
2017-09-03T21:09:07.576Z,3.63
2017-09-03T21:11:35.119Z,4.17
2017-09-03T21:14:02.657Z,3.30
2017-09-03T21:16:30.199Z,3.70
2017-09-03T21:18:57.736Z,3.87
2017-09-03T21:21:25.314Z,3.83
2017-09-03T21:23:52.823Z,3.33
2017-09-03T21:26:20.418Z,3.53
2017-09-03T21:28:47.982Z,3.40
2017-09-03T21:31:15.492Z,3.20
2017-09-03T21:33:42.983Z,3.10
2017-09-03T21:36:10.542Z,3.60
2017-09-03T21:38:38.077Z,2.87
2017-09-03T21:41:05.629Z,3.40
2017-09-03T21:43:33.159Z,3.10
2017-09-03T21:46:00.674Z,3.00
2017-09-03T21:48:28.221Z,2.90
2017-09-03T21:50:55.741Z,3.17
2017-09-03T21:53:23.284Z,3.30
2017-09-03T21:55:50.815Z,3.27
2017-09-03T21:58:18.587Z,3.40
2017-09-03T22:00:46.980Z,3.73
2017-09-03T22:03:14.559Z,2.70
2017-09-03T22:05:42.125Z,2.90
2017-09-03T22:08:09.757Z,2.90
2017-09-03T22:10:37.330Z,3.07
2017-09-03T22:13:04.890Z,3.50
2017-09-03T22:15:32.394Z,3.07
2017-09-03T22:18:00.806Z,3.07
2017-09-03T22:20:28.298Z,2.80
2017-09-03T22:22:58.577Z,2.97
2017-09-03T22:25:30.936Z,3.53
2017-09-03T22:27:59.616Z,3.47
2017-09-03T22:30:30.369Z,3.43
2017-09-03T22:32:57.886Z,3.13
2017-09-03T22:35:25.429Z,3.40
2017-09-03T22:37:52.971Z,2.87
2017-09-03T22:40:20.464Z,2.70
2017-09-03T22:42:48.003Z,3.30
2017-09-03T22:45:15.522Z,3.03
2017-09-03T22:47:43.036Z,3.07
2017-09-03T22:50:10.569Z,3.00
2017-09-03T22:52:38.080Z,3.37
2017-09-03T22:55:05.755Z,2.60
2017-09-03T22:57:33.261Z,3.30
2017-09-03T23:00:00.782Z,3.23
2017-09-03T23:02:28.307Z,3.60
2017-09-03T23:04:55.852Z,3.10
2017-09-03T23:07:23.377Z,3.30
2017-09-03T23:09:50.875Z,3.60
2017-09-03T23:12:18.393Z,4.57
2017-09-03T23:14:45.921Z,3.30
2017-09-03T23:17:13.461Z,3.53
2017-09-03T23:19:41.017Z,3.37
2017-09-03T23:22:08.626Z,3.33
2017-09-03T23:24:36.120Z,3.20
2017-09-03T23:27:03.636Z,3.23
2017-09-03T23:29:31.171Z,3.37
2017-09-03T23:31:58.653Z,3.60
2017-09-03T23:34:26.172Z,3.87
2017-09-03T23:36:53.716Z,4.10
2017-09-03T23:39:21.230Z,3.37
2017-09-03T23:41:48.720Z,3.00
2017-09-03T23:44:16.251Z,3.93
2017-09-03T23:46:43.791Z,3.77
2017-09-03T23:49:11.353Z,3.57
2017-09-03T23:51:38.884Z,3.20
2017-09-03T23:54:06.379Z,3.07
2017-09-03T23:56:33.925Z,3.40
2017-09-03T23:59:01.412Z,3.90
